sensor_id;sensor_type;location;lat;lon;timestamp;P1;P2;P0
23240;PMS7003;11789;53.482;9.862;2023-06-22T00:01:49;7.00;7.00;6.00
23240;PMS7003;11789;53.482;9.862;2023-06-22T00:04:14;11.00;11.00;8.50
23240;PMS7003;11789;53.482;9.862;2023-06-22T00:06:40;13.00;11.25;7.75
23240;PMS7003;11789;53.482;9.862;2023-06-22T00:09:06;10.25;10.25;8.00
23240;PMS7003;11789;53.482;9.862;2023-06-22T00:11:32;10.25;10.25;8.50
23240;PMS7003;11789;53.482;9.862;2023-06-22T00:13:58;11.50;10.25;8.00
23240;PMS7003;11789;53.482;9.862;2023-06-22T00:16:24;12.25;10.75;8.50
23240;PMS7003;11789;53.482;9.862;2023-06-22T00:18:49;11.50;9.25;7.00
23240;PMS7003;11789;53.482;9.862;2023-06-22T00:21:15;9.25;9.25;6.50
23240;PMS7003;11789;53.482;9.862;2023-06-22T00:23:40;9.00;9.00;7.25
23240;PMS7003;11789;53.482;9.862;2023-06-22T00:26:06;11.00;9.25;7.50
23240;PMS7003;11789;53.482;9.862;2023-06-22T00:28:32;12.00;8.75;7.75
23240;PMS7003;11789;53.482;9.862;2023-06-22T00:30:57;8.75;8.75;6.75
23240;PMS7003;11789;53.482;9.862;2023-06-22T00:33:23;10.25;7.75;6.00
23240;PMS7003;11789;53.482;9.862;2023-06-22T00:35:48;10.50;10.50;8.00
23240;PMS7003;11789;53.482;9.862;2023-06-22T00:38:17;9.25;9.25;7.75
23240;PMS7003;11789;53.482;9.862;2023-06-22T00:40:43;12.00;10.50;7.75
23240;PMS7003;11789;53.482;9.862;2023-06-22T00:43:09;11.00;9.25;6.25
23240;PMS7003;11789;53.482;9.862;2023-06-22T00:45:34;10.50;10.50;8.75
23240;PMS7003;11789;53.482;9.862;2023-06-22T00:48:00;11.25;9.50;8.00
23240;PMS7003;11789;53.482;9.862;2023-06-22T00:50:27;8.75;8.75;7.00
23240;PMS7003;11789;53.482;9.862;2023-06-22T00:52:58;11.25;10.50;8.00
23240;PMS7003;11789;53.482;9.862;2023-06-22T00:55:25;13.00;10.75;7.50
23240;PMS7003;11789;53.482;9.862;2023-06-22T00:57:51;10.00;10.00;8.00
23240;PMS7003;11789;53.482;9.862;2023-06-22T01:00:21;11.75;10.25;8.00
23240;PMS7003;11789;53.482;9.862;2023-06-22T01:02:49;10.00;9.50;6.50
23240;PMS7003;11789;53.482;9.862;2023-06-22T01:05:18;12.00;10.50;8.00
23240;PMS7003;11789;53.482;9.862;2023-06-22T01:10:15;10.00;8.75;6.75
23240;PMS7003;11789;53.482;9.862;2023-06-22T01:12:58;11.00;11.00;7.75
23240;PMS7003;11789;53.482;9.862;2023-06-22T01:18:29;9.25;9.25;6.25
23240;PMS7003;11789;53.482;9.862;2023-06-22T01:20:57;9.25;9.25;8.00
23240;PMS7003;11789;53.482;9.862;2023-06-22T01:25:56;9.50;9.50;8.00
23240;PMS7003;11789;53.482;9.862;2023-06-22T01:28:24;12.75;11.25;8.25
23240;PMS7003;11789;53.482;9.862;2023-06-22T01:31:03;9.00;9.00;7.25
23240;PMS7003;11789;53.482;9.862;2023-06-22T01:33:34;9.50;9.50;7.75
23240;PMS7003;11789;53.482;9.862;2023-06-22T01:36:03;9.25;9.25;7.25
23240;PMS7003;11789;53.482;9.862;2023-06-22T01:38:30;9.25;9.25;7.25
23240;PMS7003;11789;53.482;9.862;2023-06-22T01:40:58;10.25;9.50;7.00
23240;PMS7003;11789;53.482;9.862;2023-06-22T01:43:26;12.50;10.75;8.00
23240;PMS7003;11789;53.482;9.862;2023-06-22T01:45:56;11.50;10.25;8.00
23240;PMS7003;11789;53.482;9.862;2023-06-22T01:52:04;9.25;8.75;7.25
23240;PMS7003;11789;53.482;9.862;2023-06-22T01:54:31;12.00;10.25;7.75
23240;PMS7003;11789;53.482;9.862;2023-06-22T01:56:57;13.00;10.00;8.00
23240;PMS7003;11789;53.482;9.862;2023-06-22T01:59:26;10.00;9.75;8.00
23240;PMS7003;11789;53.482;9.862;2023-06-22T02:01:59;8.75;8.75;7.50
23240;PMS7003;11789;53.482;9.862;2023-06-22T02:04:34;7.00;7.00;6.00
23240;PMS7003;11789;53.482;9.862;2023-06-22T02:07:09;10.25;10.25;7.50
23240;PMS7003;11789;53.482;9.862;2023-06-22T02:09:41;10.25;10.25;9.00
23240;PMS7003;11789;53.482;9.862;2023-06-22T02:12:10;9.50;9.50;7.00
23240;PMS7003;11789;53.482;9.862;2023-06-22T02:14:37;9.25;9.25;8.00
23240;PMS7003;11789;53.482;9.862;2023-06-22T02:17:04;9.50;9.50;8.00
23240;PMS7003;11789;53.482;9.862;2023-06-22T02:19:35;9.50;9.50;7.25
23240;PMS7003;11789;53.482;9.862;2023-06-22T02:22:02;9.50;9.50;8.00
23240;PMS7003;11789;53.482;9.862;2023-06-22T02:24:28;10.25;10.25;8.00
23240;PMS7003;11789;53.482;9.862;2023-06-22T02:26:57;11.75;11.75;8.75
23240;PMS7003;11789;53.482;9.862;2023-06-22T02:29:23;8.50;8.50;7.00
23240;PMS7003;11789;53.482;9.862;2023-06-22T02:31:48;10.75;10.75;9.25
23240;PMS7003;11789;53.482;9.862;2023-06-22T02:34:14;9.75;9.75;7.75
23240;PMS7003;11789;53.482;9.862;2023-06-22T02:36:44;10.25;9.25;7.25
23240;PMS7003;11789;53.482;9.862;2023-06-22T02:39:22;11.25;11.25;8.50
23240;PMS7003;11789;53.482;9.862;2023-06-22T02:41:49;9.25;9.25;7.00
23240;PMS7003;11789;53.482;9.862;2023-06-22T02:44:18;11.00;11.00;8.00
23240;PMS7003;11789;53.482;9.862;2023-06-22T02:46:45;10.25;10.25;7.00
23240;PMS7003;11789;53.482;9.862;2023-06-22T02:49:10;10.25;10.25;8.75
23240;PMS7003;11789;53.482;9.862;2023-06-22T02:51:38;10.00;10.00;7.75
23240;PMS7003;11789;53.482;9.862;2023-06-22T02:54:05;10.25;8.50;7.00
23240;PMS7003;11789;53.482;9.862;2023-06-22T02:56:31;9.50;9.25;6.00
23240;PMS7003;11789;53.482;9.862;2023-06-22T02:58:56;9.25;9.25;7.00
23240;PMS7003;11789;53.482;9.862;2023-06-22T03:01:26;9.50;9.50;7.75
23240;PMS7003;11789;53.482;9.862;2023-06-22T03:03:58;11.50;10.00;6.75
23240;PMS7003;11789;53.482;9.862;2023-06-22T03:06:24;10.25;10.25;8.75
23240;PMS7003;11789;53.482;9.862;2023-06-22T03:08:57;11.00;11.00;8.00
23240;PMS7003;11789;53.482;9.862;2023-06-22T03:11:26;11.75;10.75;8.25
23240;PMS7003;11789;53.482;9.862;2023-06-22T03:13:52;9.50;9.50;7.00
23240;PMS7003;11789;53.482;9.862;2023-06-22T03:16:18;9.50;8.00;6.75
23240;PMS7003;11789;53.482;9.862;2023-06-22T03:18:44;10.50;10.50;8.50
23240;PMS7003;11789;53.482;9.862;2023-06-22T03:21:09;9.50;9.50;7.00
23240;PMS7003;11789;53.482;9.862;2023-06-22T03:23:35;10.50;10.50;9.25
23240;PMS7003;11789;53.482;9.862;2023-06-22T03:26:01;9.75;9.75;8.25
23240;PMS7003;11789;53.482;9.862;2023-06-22T03:28:27;10.00;10.00;8.25
23240;PMS7003;11789;53.482;9.862;2023-06-22T03:30:52;9.50;9.50;7.00
23240;PMS7003;11789;53.482;9.862;2023-06-22T03:33:18;10.25;10.25;8.25
23240;PMS7003;11789;53.482;9.862;2023-06-22T03:35:43;11.00;11.00;8.75
23240;PMS7003;11789;53.482;9.862;2023-06-22T03:38:09;9.25;9.25;8.00
23240;PMS7003;11789;53.482;9.862;2023-06-22T03:40:34;13.00;11.25;8.75
23240;PMS7003;11789;53.482;9.862;2023-06-22T03:42:59;11.25;11.25;7.00
23240;PMS7003;11789;53.482;9.862;2023-06-22T03:45:25;6.50;6.50;5.00
23240;PMS7003;11789;53.482;9.862;2023-06-22T03:47:50;10.25;10.25;8.25
23240;PMS7003;11789;53.482;9.862;2023-06-22T03:50:16;10.50;10.50;8.75
23240;PMS7003;11789;53.482;9.862;2023-06-22T03:52:41;11.00;11.00;8.50
23240;PMS7003;11789;53.482;9.862;2023-06-22T03:55:07;11.25;11.25;9.50
23240;PMS7003;11789;53.482;9.862;2023-06-22T03:57:33;11.75;10.00;6.25
23240;PMS7003;11789;53.482;9.862;2023-06-22T03:59:59;10.50;10.50;7.00
23240;PMS7003;11789;53.482;9.862;2023-06-22T04:02:24;11.25;11.25;9.25
23240;PMS7003;11789;53.482;9.862;2023-06-22T04:04:50;11.25;11.25;8.50
23240;PMS7003;11789;53.482;9.862;2023-06-22T04:07:16;11.25;11.25;8.50
23240;PMS7003;11789;53.482;9.862;2023-06-22T04:09:43;11.75;11.75;9.75
23240;PMS7003;11789;53.482;9.862;2023-06-22T04:12:08;12.25;10.75;8.25
23240;PMS7003;11789;53.482;9.862;2023-06-22T04:14:34;12.00;12.00;9.25
23240;PMS7003;11789;53.482;9.862;2023-06-22T04:16:59;10.25;10.25;8.25
23240;PMS7003;11789;53.482;9.862;2023-06-22T04:19:25;12.50;11.50;9.25
23240;PMS7003;11789;53.482;9.862;2023-06-22T04:21:50;11.50;11.50;9.00
23240;PMS7003;11789;53.482;9.862;2023-06-22T04:24:16;10.75;10.00;8.00
23240;PMS7003;11789;53.482;9.862;2023-06-22T04:26:41;13.00;13.00;8.00
23240;PMS7003;11789;53.482;9.862;2023-06-22T04:29:07;13.00;10.50;8.00
23240;PMS7003;11789;53.482;9.862;2023-06-22T04:31:36;12.50;12.50;9.00
23240;PMS7003;11789;53.482;9.862;2023-06-22T04:34:06;12.25;12.25;10.25
23240;PMS7003;11789;53.482;9.862;2023-06-22T04:36:36;11.50;11.50;9.25
23240;PMS7003;11789;53.482;9.862;2023-06-22T04:39:06;12.00;12.00;9.50
23240;PMS7003;11789;53.482;9.862;2023-06-22T04:41:34;11.50;11.50;7.25
23240;PMS7003;11789;53.482;9.862;2023-06-22T04:44:07;12.25;11.25;8.25
23240;PMS7003;11789;53.482;9.862;2023-06-22T04:46:33;12.25;10.75;9.50
23240;PMS7003;11789;53.482;9.862;2023-06-22T04:49:03;13.00;12.25;10.50
23240;PMS7003;11789;53.482;9.862;2023-06-22T04:51:32;12.25;10.75;8.75
23240;PMS7003;11789;53.482;9.862;2023-06-22T04:53:57;15.50;13.50;10.00
23240;PMS7003;11789;53.482;9.862;2023-06-22T04:56:26;12.00;10.25;8.50
23240;PMS7003;11789;53.482;9.862;2023-06-22T04:58:53;14.00;12.50;9.25
23240;PMS7003;11789;53.482;9.862;2023-06-22T05:01:22;13.25;13.25;10.25
23240;PMS7003;11789;53.482;9.862;2023-06-22T05:03:48;12.75;11.25;8.00
23240;PMS7003;11789;53.482;9.862;2023-06-22T05:06:13;11.25;11.25;9.00
23240;PMS7003;11789;53.482;9.862;2023-06-22T05:08:39;13.25;12.50;9.00
23240;PMS7003;11789;53.482;9.862;2023-06-22T05:11:05;7.00;7.00;3.50
23240;PMS7003;11789;53.482;9.862;2023-06-22T05:13:31;12.50;10.75;7.50
23240;PMS7003;11789;53.482;9.862;2023-06-22T05:15:57;16.25;13.25;10.25
23240;PMS7003;11789;53.482;9.862;2023-06-22T05:18:32;16.00;12.00;10.00
23240;PMS7003;11789;53.482;9.862;2023-06-22T05:20:59;11.50;11.50;9.75
23240;PMS7003;11789;53.482;9.862;2023-06-22T05:23:25;12.00;12.00;9.00
23240;PMS7003;11789;53.482;9.862;2023-06-22T05:25:50;11.00;11.00;9.00
23240;PMS7003;11789;53.482;9.862;2023-06-22T05:28:16;12.25;12.25;9.50
23240;PMS7003;11789;53.482;9.862;2023-06-22T05:30:41;14.25;14.25;11.25
23240;PMS7003;11789;53.482;9.862;2023-06-22T05:33:07;15.00;15.00;9.50
23240;PMS7003;11789;53.482;9.862;2023-06-22T05:35:32;12.00;12.00;8.00
23240;PMS7003;11789;53.482;9.862;2023-06-22T05:37:58;9.25;9.25;7.75
23240;PMS7003;11789;53.482;9.862;2023-06-22T05:40:23;17.75;16.00;12.25
23240;PMS7003;11789;53.482;9.862;2023-06-22T05:42:49;18.25;16.25;13.25
23240;PMS7003;11789;53.482;9.862;2023-06-22T05:45:14;19.75;19.75;14.50
23240;PMS7003;11789;53.482;9.862;2023-06-22T05:47:40;24.00;22.50;15.00
23240;PMS7003;11789;53.482;9.862;2023-06-22T05:50:05;18.75;18.75;14.50
23240;PMS7003;11789;53.482;9.862;2023-06-22T05:52:33;18.00;18.00;14.75
23240;PMS7003;11789;53.482;9.862;2023-06-22T05:55:01;18.50;18.50;14.50
23240;PMS7003;11789;53.482;9.862;2023-06-22T05:57:27;21.50;19.00;13.25
23240;PMS7003;11789;53.482;9.862;2023-06-22T05:59:53;18.75;18.25;12.25
23240;PMS7003;11789;53.482;9.862;2023-06-22T06:02:19;16.50;15.75;11.25
23240;PMS7003;11789;53.482;9.862;2023-06-22T06:04:44;19.75;19.75;13.25
23240;PMS7003;11789;53.482;9.862;2023-06-22T06:07:10;17.00;17.00;12.50
23240;PMS7003;11789;53.482;9.862;2023-06-22T06:09:35;18.00;15.25;12.50
23240;PMS7003;11789;53.482;9.862;2023-06-22T06:12:01;19.75;17.25;11.50
23240;PMS7003;11789;53.482;9.862;2023-06-22T06:14:28;19.75;17.00;13.25
23240;PMS7003;11789;53.482;9.862;2023-06-22T06:16:53;20.50;17.25;12.75
23240;PMS7003;11789;53.482;9.862;2023-06-22T06:19:18;18.75;15.50;11.00
23240;PMS7003;11789;53.482;9.862;2023-06-22T06:21:44;19.25;16.75;11.00
23240;PMS7003;11789;53.482;9.862;2023-06-22T06:24:11;17.00;17.00;12.25
23240;PMS7003;11789;53.482;9.862;2023-06-22T06:26:36;16.25;16.00;12.25
23240;PMS7003;11789;53.482;9.862;2023-06-22T06:29:02;11.00;11.00;8.25
23240;PMS7003;11789;53.482;9.862;2023-06-22T06:31:28;13.75;13.75;10.25
23240;PMS7003;11789;53.482;9.862;2023-06-22T06:33:54;14.50;14.50;10.50
23240;PMS7003;11789;53.482;9.862;2023-06-22T06:36:20;13.50;13.50;9.00
23240;PMS7003;11789;53.482;9.862;2023-06-22T06:38:46;14.33;12.33;9.00
23240;PMS7003;11789;53.482;9.862;2023-06-22T06:41:15;17.50;13.75;10.75
23240;PMS7003;11789;53.482;9.862;2023-06-22T06:43:41;15.00;13.33;9.00
23240;PMS7003;11789;53.482;9.862;2023-06-22T06:46:10;14.33;12.33;9.00
23240;PMS7003;11789;53.482;9.862;2023-06-22T06:48:35;15.33;13.67;9.00
23240;PMS7003;11789;53.482;9.862;2023-06-22T06:51:01;15.67;11.00;8.67
23240;PMS7003;11789;53.482;9.862;2023-06-22T06:53:27;9.00;9.00;7.00
23240;PMS7003;11789;53.482;9.862;2023-06-22T06:55:53;10.67;8.33;7.00
23240;PMS7003;11789;53.482;9.862;2023-06-22T06:58:19;13.67;12.00;8.00
23240;PMS7003;11789;53.482;9.862;2023-06-22T07:00:44;10.00;9.00;7.00
23240;PMS7003;11789;53.482;9.862;2023-06-22T07:03:10;10.00;10.00;7.00
23240;PMS7003;11789;53.482;9.862;2023-06-22T07:05:35;8.33;8.33;6.67
23240;PMS7003;11789;53.482;9.862;2023-06-22T07:08:01;11.33;9.67;7.33
23240;PMS7003;11789;53.482;9.862;2023-06-22T07:10:28;9.00;9.00;6.33
23240;PMS7003;11789;53.482;9.862;2023-06-22T07:12:54;12.33;11.00;7.67
23240;PMS7003;11789;53.482;9.862;2023-06-22T07:15:20;10.00;8.00;7.00
23240;PMS7003;11789;53.482;9.862;2023-06-22T07:17:45;9.00;9.00;7.00
23240;PMS7003;11789;53.482;9.862;2023-06-22T07:20:11;8.67;8.00;6.67
23240;PMS7003;11789;53.482;9.862;2023-06-22T07:22:37;10.00;9.67;7.00
23240;PMS7003;11789;53.482;9.862;2023-06-22T07:25:04;8.33;8.33;6.00
23240;PMS7003;11789;53.482;9.862;2023-06-22T07:27:34;11.67;10.00;7.00
23240;PMS7003;11789;53.482;9.862;2023-06-22T07:30:03;9.33;9.33;7.33
23240;PMS7003;11789;53.482;9.862;2023-06-22T07:32:29;9.00;9.00;7.00
23240;PMS7003;11789;53.482;9.862;2023-06-22T07:34:54;9.00;9.00;6.00
23240;PMS7003;11789;53.482;9.862;2023-06-22T07:37:20;9.33;9.33;7.33
23240;PMS7003;11789;53.482;9.862;2023-06-22T07:39:46;9.00;9.00;7.67
23240;PMS7003;11789;53.482;9.862;2023-06-22T07:42:11;9.67;9.67;7.33
23240;PMS7003;11789;53.482;9.862;2023-06-22T07:44:37;11.67;9.00;7.00
23240;PMS7003;11789;53.482;9.862;2023-06-22T07:47:02;9.00;7.33;6.00
23240;PMS7003;11789;53.482;9.862;2023-06-22T07:49:28;9.67;9.67;7.33
23240;PMS7003;11789;53.482;9.862;2023-06-22T07:51:54;8.00;6.67;5.33
23240;PMS7003;11789;53.482;9.862;2023-06-22T07:54:20;10.00;8.00;6.33
23240;PMS7003;11789;53.482;9.862;2023-06-22T07:56:46;9.67;9.00;7.00
23240;PMS7003;11789;53.482;9.862;2023-06-22T07:59:11;9.33;9.33;7.00
23240;PMS7003;11789;53.482;9.862;2023-06-22T08:01:36;7.67;7.67;6.00
23240;PMS7003;11789;53.482;9.862;2023-06-22T08:04:02;6.00;6.00;5.00
23240;PMS7003;11789;53.482;9.862;2023-06-22T08:06:29;7.00;7.00;6.00
23240;PMS7003;11789;53.482;9.862;2023-06-22T08:08:55;7.50;7.00;6.00
23240;PMS7003;11789;53.482;9.862;2023-06-22T08:11:22;8.67;7.00;5.33
23240;PMS7003;11789;53.482;9.862;2023-06-22T08:13:48;9.00;8.00;5.50
23240;PMS7003;11789;53.482;9.862;2023-06-22T08:16:15;8.00;8.00;6.00
23240;PMS7003;11789;53.482;9.862;2023-06-22T08:18:40;7.33;7.33;5.33
23240;PMS7003;11789;53.482;9.862;2023-06-22T08:21:05;5.00;5.00;4.33
23240;PMS7003;11789;53.482;9.862;2023-06-22T08:23:31;5.00;5.00;4.33
23240;PMS7003;11789;53.482;9.862;2023-06-22T08:25:56;7.00;7.00;5.00
23240;PMS7003;11789;53.482;9.862;2023-06-22T08:28:22;6.00;6.00;5.00
23240;PMS7003;11789;53.482;9.862;2023-06-22T08:30:47;7.33;6.00;5.00
23240;PMS7003;11789;53.482;9.862;2023-06-22T08:33:13;7.00;7.00;6.00
23240;PMS7003;11789;53.482;9.862;2023-06-22T08:35:38;7.00;7.00;5.67
23240;PMS7003;11789;53.482;9.862;2023-06-22T08:38:04;6.33;5.33;5.00
23240;PMS7003;11789;53.482;9.862;2023-06-22T08:40:29;6.00;6.00;4.00
23240;PMS7003;11789;53.482;9.862;2023-06-22T08:42:55;9.00;7.00;5.67
23240;PMS7003;11789;53.482;9.862;2023-06-22T08:45:20;7.67;5.67;4.00
23240;PMS7003;11789;53.482;9.862;2023-06-22T08:47:45;6.33;6.33;5.00
23240;PMS7003;11789;53.482;9.862;2023-06-22T08:50:11;6.67;6.67;5.00
23240;PMS7003;11789;53.482;9.862;2023-06-22T08:52:38;6.00;6.00;5.00
23240;PMS7003;11789;53.482;9.862;2023-06-22T08:55:06;7.00;7.00;5.00
23240;PMS7003;11789;53.482;9.862;2023-06-22T08:57:32;7.00;6.00;5.00
23240;PMS7003;11789;53.482;9.862;2023-06-22T08:59:58;8.00;6.67;5.33
23240;PMS7003;11789;53.482;9.862;2023-06-22T09:02:27;7.33;6.00;5.00
23240;PMS7003;11789;53.482;9.862;2023-06-22T09:04:56;6.25;5.25;4.00
23240;PMS7003;11789;53.482;9.862;2023-06-22T09:07:23;7.00;7.00;4.25
23240;PMS7003;11789;53.482;9.862;2023-06-22T09:09:49;9.67;6.67;5.67
23240;PMS7003;11789;53.482;9.862;2023-06-22T09:12:15;6.00;6.00;4.67
23240;PMS7003;11789;53.482;9.862;2023-06-22T09:14:41;8.00;8.00;6.00
23240;PMS7003;11789;53.482;9.862;2023-06-22T09:17:07;6.00;6.00;5.33
23240;PMS7003;11789;53.482;9.862;2023-06-22T09:19:32;6.00;6.00;5.00
23240;PMS7003;11789;53.482;9.862;2023-06-22T09:21:58;6.33;6.33;5.33
23240;PMS7003;11789;53.482;9.862;2023-06-22T09:24:23;7.00;7.00;6.00
23240;PMS7003;11789;53.482;9.862;2023-06-22T09:26:49;7.00;6.00;4.67
23240;PMS7003;11789;53.482;9.862;2023-06-22T09:29:15;6.00;6.00;5.00
23240;PMS7003;11789;53.482;9.862;2023-06-22T09:31:40;8.33;7.00;6.00
23240;PMS7003;11789;53.482;9.862;2023-06-22T09:34:06;4.67;3.33;2.33
23240;PMS7003;11789;53.482;9.862;2023-06-22T09:36:31;5.00;5.00;5.00
23240;PMS7003;11789;53.482;9.862;2023-06-22T09:38:57;7.67;6.67;5.00
23240;PMS7003;11789;53.482;9.862;2023-06-22T09:41:24;11.00;8.00;6.00
23240;PMS7003;11789;53.482;9.862;2023-06-22T09:43:50;9.50;8.00;6.75
23240;PMS7003;11789;53.482;9.862;2023-06-22T09:46:15;6.00;6.00;5.00
23240;PMS7003;11789;53.482;9.862;2023-06-22T09:48:41;7.33;7.33;6.00
23240;PMS7003;11789;53.482;9.862;2023-06-22T09:51:07;7.67;7.67;6.00
23240;PMS7003;11789;53.482;9.862;2023-06-22T09:53:32;8.00;8.00;7.00
23240;PMS7003;11789;53.482;9.862;2023-06-22T09:55:59;8.25;8.25;6.50
23240;PMS7003;11789;53.482;9.862;2023-06-22T09:58:25;9.25;9.25;7.25
23240;PMS7003;11789;53.482;9.862;2023-06-22T10:00:51;8.33;8.33;7.67
23240;PMS7003;11789;53.482;9.862;2023-06-22T10:03:16;8.67;8.67;7.00
23240;PMS7003;11789;53.482;9.862;2023-06-22T10:05:42;8.33;8.33;7.33
23240;PMS7003;11789;53.482;9.862;2023-06-22T10:08:07;9.00;9.00;6.67
23240;PMS7003;11789;53.482;9.862;2023-06-22T10:10:34;7.50;7.25;6.00
23240;PMS7003;11789;53.482;9.862;2023-06-22T10:13:02;8.33;8.33;7.33
23240;PMS7003;11789;53.482;9.862;2023-06-22T10:15:37;9.25;9.25;8.00
23240;PMS7003;11789;53.482;9.862;2023-06-22T10:18:03;8.50;8.50;7.00
23240;PMS7003;11789;53.482;9.862;2023-06-22T10:20:28;10.67;10.67;8.00
23240;PMS7003;11789;53.482;9.862;2023-06-22T10:22:54;8.33;8.33;7.00
23240;PMS7003;11789;53.482;9.862;2023-06-22T10:25:20;10.00;10.00;8.00
23240;PMS7003;11789;53.482;9.862;2023-06-22T10:27:46;8.75;8.75;7.00
23240;PMS7003;11789;53.482;9.862;2023-06-22T10:30:12;8.67;8.33;7.00
23240;PMS7003;11789;53.482;9.862;2023-06-22T10:32:38;9.00;9.00;7.00
23240;PMS7003;11789;53.482;9.862;2023-06-22T10:35:04;9.00;9.00;6.75
23240;PMS7003;11789;53.482;9.862;2023-06-22T10:37:30;10.75;10.00;8.00
23240;PMS7003;11789;53.482;9.862;2023-06-22T10:39:56;9.00;9.00;8.00
23240;PMS7003;11789;53.482;9.862;2023-06-22T10:42:23;10.25;10.25;7.25
23240;PMS7003;11789;53.482;9.862;2023-06-22T10:44:48;8.00;6.33;6.00
23240;PMS7003;11789;53.482;9.862;2023-06-22T10:47:14;10.67;9.33;8.33
23240;PMS7003;11789;53.482;9.862;2023-06-22T10:49:39;9.67;9.67;7.33
23240;PMS7003;11789;53.482;9.862;2023-06-22T10:52:06;10.00;10.00;7.50
23240;PMS7003;11789;53.482;9.862;2023-06-22T10:54:33;8.50;8.50;7.00
23240;PMS7003;11789;53.482;9.862;2023-06-22T10:56:59;10.25;10.25;8.25
23240;PMS7003;11789;53.482;9.862;2023-06-22T10:59:25;7.33;7.33;6.33
23240;PMS7003;11789;53.482;9.862;2023-06-22T11:01:51;10.67;10.00;8.00
23240;PMS7003;11789;53.482;9.862;2023-06-22T11:04:17;9.67;9.67;7.00
23240;PMS7003;11789;53.482;9.862;2023-06-22T11:06:42;10.67;10.33;8.00
23240;PMS7003;11789;53.482;9.862;2023-06-22T11:09:08;10.75;10.75;9.00
23240;PMS7003;11789;53.482;9.862;2023-06-22T11:11:34;11.67;11.00;9.00
23240;PMS7003;11789;53.482;9.862;2023-06-22T11:13:59;10.67;10.67;9.00
23240;PMS7003;11789;53.482;9.862;2023-06-22T11:16:25;6.67;6.00;5.00
23240;PMS7003;11789;53.482;9.862;2023-06-22T11:18:50;10.00;10.00;9.00
23240;PMS7003;11789;53.482;9.862;2023-06-22T11:21:16;12.33;11.00;8.33
23240;PMS7003;11789;53.482;9.862;2023-06-22T11:23:41;11.67;11.67;9.00
23240;PMS7003;11789;53.482;9.862;2023-06-22T11:26:07;10.00;10.00;8.75
23240;PMS7003;11789;53.482;9.862;2023-06-22T11:28:33;10.33;10.00;8.00
23240;PMS7003;11789;53.482;9.862;2023-06-22T11:30:58;14.33;13.00;9.67
23240;PMS7003;11789;53.482;9.862;2023-06-22T11:33:24;13.00;13.00;10.00
23240;PMS7003;11789;53.482;9.862;2023-06-22T11:35:49;12.00;12.00;9.33
23240;PMS7003;11789;53.482;9.862;2023-06-22T11:38:15;13.00;12.00;10.00
23240;PMS7003;11789;53.482;9.862;2023-06-22T11:40:40;11.00;11.00;9.00
23240;PMS7003;11789;53.482;9.862;2023-06-22T11:43:06;13.33;10.33;9.33
23240;PMS7003;11789;53.482;9.862;2023-06-22T11:45:31;11.33;11.33;10.00
23240;PMS7003;11789;53.482;9.862;2023-06-22T11:47:56;12.00;12.00;9.33
23240;PMS7003;11789;53.482;9.862;2023-06-22T11:50:22;13.33;13.33;12.00
23240;PMS7003;11789;53.482;9.862;2023-06-22T11:52:47;14.00;14.00;10.33
23240;PMS7003;11789;53.482;9.862;2023-06-22T11:55:13;15.33;13.67;10.00
23240;PMS7003;11789;53.482;9.862;2023-06-22T11:57:39;14.33;12.33;10.33
23240;PMS7003;11789;53.482;9.862;2023-06-22T12:00:18;11.00;10.00;8.50
23240;PMS7003;11789;53.482;9.862;2023-06-22T12:02:45;16.75;14.00;11.75
23240;PMS7003;11789;53.482;9.862;2023-06-22T12:05:10;12.33;12.33;11.00
23240;PMS7003;11789;53.482;9.862;2023-06-22T12:07:37;13.00;13.00;9.75
23240;PMS7003;11789;53.482;9.862;2023-06-22T12:10:03;14.33;14.33;11.00
23240;PMS7003;11789;53.482;9.862;2023-06-22T12:12:29;15.75;14.50;12.25
23240;PMS7003;11789;53.482;9.862;2023-06-22T12:14:54;13.33;13.33;10.33
23240;PMS7003;11789;53.482;9.862;2023-06-22T12:17:20;13.00;11.33;9.00
23240;PMS7003;11789;53.482;9.862;2023-06-22T12:19:45;13.00;13.00;10.33
23240;PMS7003;11789;53.482;9.862;2023-06-22T12:22:10;14.67;13.33;10.33
23240;PMS7003;11789;53.482;9.862;2023-06-22T12:24:36;14.67;14.67;12.33
23240;PMS7003;11789;53.482;9.862;2023-06-22T12:27:01;12.67;12.67;10.00
23240;PMS7003;11789;53.482;9.862;2023-06-22T12:29:28;13.00;13.00;10.25
23240;PMS7003;11789;53.482;9.862;2023-06-22T12:31:54;15.50;13.75;10.75
23240;PMS7003;11789;53.482;9.862;2023-06-22T12:34:20;12.67;12.67;10.33
23240;PMS7003;11789;53.482;9.862;2023-06-22T12:36:45;13.33;13.33;11.00
23240;PMS7003;11789;53.482;9.862;2023-06-22T12:39:13;15.00;13.00;10.75
23240;PMS7003;11789;53.482;9.862;2023-06-22T12:41:38;13.33;13.33;10.33
23240;PMS7003;11789;53.482;9.862;2023-06-22T12:44:04;14.00;14.00;12.00
23240;PMS7003;11789;53.482;9.862;2023-06-22T12:46:29;14.33;14.33;11.33
23240;PMS7003;11789;53.482;9.862;2023-06-22T12:49:01;11.50;11.50;10.50
23240;PMS7003;11789;53.482;9.862;2023-06-22T12:51:27;12.67;12.67;10.67
23240;PMS7003;11789;53.482;9.862;2023-06-22T12:53:52;12.00;12.00;10.67
23240;PMS7003;11789;53.482;9.862;2023-06-22T12:56:18;17.00;15.00;12.00
23240;PMS7003;11789;53.482;9.862;2023-06-22T12:58:43;14.67;14.67;12.33
23240;PMS7003;11789;53.482;9.862;2023-06-22T13:01:09;17.33;16.00;11.33
23240;PMS7003;11789;53.482;9.862;2023-06-22T13:03:34;14.67;13.33;11.00
23240;PMS7003;11789;53.482;9.862;2023-06-22T13:06:00;13.00;13.00;10.33
23240;PMS7003;11789;53.482;9.862;2023-06-22T13:08:25;13.00;13.00;11.33
23240;PMS7003;11789;53.482;9.862;2023-06-22T13:10:50;14.67;14.67;9.33
23240;PMS7003;11789;53.482;9.862;2023-06-22T13:13:16;14.67;14.67;12.33
23240;PMS7003;11789;53.482;9.862;2023-06-22T13:15:41;15.67;14.00;12.67
23240;PMS7003;11789;53.482;9.862;2023-06-22T13:18:07;14.00;14.00;11.00
23240;PMS7003;11789;53.482;9.862;2023-06-22T13:20:33;15.00;15.00;11.00
23240;PMS7003;11789;53.482;9.862;2023-06-22T13:22:59;16.25;15.25;12.25
23240;PMS7003;11789;53.482;9.862;2023-06-22T13:25:24;15.33;15.33;12.33
23240;PMS7003;11789;53.482;9.862;2023-06-22T13:27:51;16.00;16.00;11.75
23240;PMS7003;11789;53.482;9.862;2023-06-22T13:30:17;17.00;15.00;12.33
23240;PMS7003;11789;53.482;9.862;2023-06-22T13:32:42;17.00;15.67;12.67
23240;PMS7003;11789;53.482;9.862;2023-06-22T13:35:08;12.33;11.00;10.00
23240;PMS7003;11789;53.482;9.862;2023-06-22T13:37:37;17.50;16.00;11.25
23240;PMS7003;11789;53.482;9.862;2023-06-22T13:40:03;18.67;17.33;13.00
23240;PMS7003;11789;53.482;9.862;2023-06-22T13:42:31;16.25;15.00;11.75
23240;PMS7003;11789;53.482;9.862;2023-06-22T13:44:57;18.00;18.00;14.00
23240;PMS7003;11789;53.482;9.862;2023-06-22T13:47:22;17.00;16.33;12.67
23240;PMS7003;11789;53.482;9.862;2023-06-22T13:49:48;16.00;16.00;12.33
23240;PMS7003;11789;53.482;9.862;2023-06-22T13:52:13;18.00;16.00;12.00
23240;PMS7003;11789;53.482;9.862;2023-06-22T13:54:39;15.33;15.33;12.00
23240;PMS7003;11789;53.482;9.862;2023-06-22T13:57:05;14.00;14.00;12.00
23240;PMS7003;11789;53.482;9.862;2023-06-22T13:59:30;16.00;16.00;12.33
23240;PMS7003;11789;53.482;9.862;2023-06-22T14:01:56;13.67;13.67;11.00
23240;PMS7003;11789;53.482;9.862;2023-06-22T14:04:22;15.67;15.33;12.00
23240;PMS7003;11789;53.482;9.862;2023-06-22T14:06:48;15.25;13.75;11.50
23240;PMS7003;11789;53.482;9.862;2023-06-22T14:09:14;19.33;18.00;13.00
23240;PMS7003;11789;53.482;9.862;2023-06-22T14:11:39;15.00;15.00;11.33